sensor_id;sensor_type;location;lat;lon;timestamp;temperature;humidity
56771;DHT22;42641;59.794;17.616;2023-11-19T00:49:32;-2.80;99.90
56771;DHT22;42641;59.794;17.616;2023-11-19T00:51:59;-3.00;99.90
56771;DHT22;42641;59.794;17.616;2023-11-19T00:54:26;-3.00;99.90
56771;DHT22;42641;59.794;17.616;2023-11-19T00:56:52;-3.00;99.90
56771;DHT22;42641;59.794;17.616;2023-11-19T00:59:19;-3.00;99.90
56771;DHT22;42641;59.794;17.616;2023-11-19T01:01:46;-2.90;99.90
56771;DHT22;42641;59.794;17.616;2023-11-19T01:04:14;-2.80;99.90
56771;DHT22;42641;59.794;17.616;2023-11-19T01:06:41;-2.80;99.90
56771;DHT22;42641;59.794;17.616;2023-11-19T01:09:08;-2.70;99.90
56771;DHT22;42641;59.794;17.616;2023-11-19T01:11:35;-2.70;99.90
56771;DHT22;42641;59.794;17.616;2023-11-19T01:14:02;-2.80;99.90
56771;DHT22;42641;59.794;17.616;2023-11-19T01:16:28;-2.70;99.90
56771;DHT22;42641;59.794;17.616;2023-11-19T01:18:55;-2.80;99.90
56771;DHT22;42641;59.794;17.616;2023-11-19T01:21:22;-2.80;99.90
56771;DHT22;42641;59.794;17.616;2023-11-19T01:23:48;-2.80;99.90
56771;DHT22;42641;59.794;17.616;2023-11-19T01:26:15;-2.70;99.90
56771;DHT22;42641;59.794;17.616;2023-11-19T01:28:42;-2.70;99.90
56771;DHT22;42641;59.794;17.616;2023-11-19T01:31:15;-2.60;99.90
56771;DHT22;42641;59.794;17.616;2023-11-19T01:33:41;-2.60;99.90
56771;DHT22;42641;59.794;17.616;2023-11-19T01:36:08;-2.60;99.90
56771;DHT22;42641;59.794;17.616;2023-11-19T01:38:36;-2.50;99.90
56771;DHT22;42641;59.794;17.616;2023-11-19T01:41:02;-2.50;99.90
56771;DHT22;42641;59.794;17.616;2023-11-19T01:46:01;-2.50;99.90
56771;DHT22;42641;59.794;17.616;2023-11-19T01:48:29;-2.40;99.90
56771;DHT22;42641;59.794;17.616;2023-11-19T01:50:56;-2.40;99.90
56771;DHT22;42641;59.794;17.616;2023-11-19T01:53:23;-2.50;99.90
56771;DHT22;42641;59.794;17.616;2023-11-19T01:55:50;-2.50;99.90
56771;DHT22;42641;59.794;17.616;2023-11-19T01:58:18;-2.60;99.90
56771;DHT22;42641;59.794;17.616;2023-11-19T02:00:45;-2.60;99.90
56771;DHT22;42641;59.794;17.616;2023-11-19T02:03:13;-2.70;99.90
56771;DHT22;42641;59.794;17.616;2023-11-19T02:05:41;-2.60;99.90
56771;DHT22;42641;59.794;17.616;2023-11-19T02:08:07;-2.60;99.90
56771;DHT22;42641;59.794;17.616;2023-11-19T02:10:34;-2.60;99.90
56771;DHT22;42641;59.794;17.616;2023-11-19T02:13:01;-2.60;99.90
56771;DHT22;42641;59.794;17.616;2023-11-19T02:15:28;-2.60;99.90
56771;DHT22;42641;59.794;17.616;2023-11-19T02:17:55;-2.60;99.90
56771;DHT22;42641;59.794;17.616;2023-11-19T02:20:21;-2.50;99.90
56771;DHT22;42641;59.794;17.616;2023-11-19T02:22:48;-2.40;99.90
56771;DHT22;42641;59.794;17.616;2023-11-19T02:25:25;-2.30;99.90
56771;DHT22;42641;59.794;17.616;2023-11-19T02:27:58;-2.30;99.90
56771;DHT22;42641;59.794;17.616;2023-11-19T02:30:26;-2.40;99.90
56771;DHT22;42641;59.794;17.616;2023-11-19T02:32:53;-2.50;99.90
56771;DHT22;42641;59.794;17.616;2023-11-19T02:35:20;-2.50;99.90
56771;DHT22;42641;59.794;17.616;2023-11-19T02:37:48;-2.50;99.90
56771;DHT22;42641;59.794;17.616;2023-11-19T02:40:14;-2.50;99.90
56771;DHT22;42641;59.794;17.616;2023-11-19T02:42:41;-2.50;99.90
56771;DHT22;42641;59.794;17.616;2023-11-19T02:45:08;-2.50;99.90
56771;DHT22;42641;59.794;17.616;2023-11-19T02:47:43;-2.50;99.90
56771;DHT22;42641;59.794;17.616;2023-11-19T02:50:11;-2.50;99.90
56771;DHT22;42641;59.794;17.616;2023-11-19T02:52:41;-2.50;99.90
56771;DHT22;42641;59.794;17.616;2023-11-19T02:55:09;-2.50;99.90
56771;DHT22;42641;59.794;17.616;2023-11-19T02:57:39;-2.60;99.90
56771;DHT22;42641;59.794;17.616;2023-11-19T03:00:17;-2.60;99.90
56771;DHT22;42641;59.794;17.616;2023-11-19T03:02:47;-2.60;99.90
56771;DHT22;42641;59.794;17.616;2023-11-19T03:05:15;-2.50;99.90
56771;DHT22;42641;59.794;17.616;2023-11-19T03:07:43;-2.60;99.90
56771;DHT22;42641;59.794;17.616;2023-11-19T03:10:10;-2.60;99.90
56771;DHT22;42641;59.794;17.616;2023-11-19T03:12:44;-2.60;99.90
56771;DHT22;42641;59.794;17.616;2023-11-19T03:15:11;-2.60;99.90
56771;DHT22;42641;59.794;17.616;2023-11-19T03:17:39;-2.70;99.90
56771;DHT22;42641;59.794;17.616;2023-11-19T03:20:07;-2.80;99.90
56771;DHT22;42641;59.794;17.616;2023-11-19T03:22:37;-2.80;99.90
56771;DHT22;42641;59.794;17.616;2023-11-19T03:25:05;-2.80;99.90
56771;DHT22;42641;59.794;17.616;2023-11-19T03:27:43;-2.80;99.90
56771;DHT22;42641;59.794;17.616;2023-11-19T03:30:10;-2.80;99.90
56771;DHT22;42641;59.794;17.616;2023-11-19T03:32:37;-2.80;99.90
56771;DHT22;42641;59.794;17.616;2023-11-19T03:35:05;-2.90;99.90
56771;DHT22;42641;59.794;17.616;2023-11-19T03:37:33;-2.80;99.90
56771;DHT22;42641;59.794;17.616;2023-11-19T03:40:00;-2.80;99.90
56771;DHT22;42641;59.794;17.616;2023-11-19T03:42:29;-2.80;99.90
56771;DHT22;42641;59.794;17.616;2023-11-19T03:44:58;-2.80;99.90
56771;DHT22;42641;59.794;17.616;2023-11-19T03:47:25;-2.80;99.90
56771;DHT22;42641;59.794;17.616;2023-11-19T03:49:51;-2.70;99.90
56771;DHT22;42641;59.794;17.616;2023-11-19T03:52:18;-2.70;99.90
56771;DHT22;42641;59.794;17.616;2023-11-19T03:54:45;-2.70;99.90
56771;DHT22;42641;59.794;17.616;2023-11-19T03:57:12;-2.70;99.90
56771;DHT22;42641;59.794;17.616;2023-11-19T03:59:39;-2.80;99.90
56771;DHT22;42641;59.794;17.616;2023-11-19T04:02:06;-2.80;99.90
56771;DHT22;42641;59.794;17.616;2023-11-19T04:04:33;-2.80;99.90
56771;DHT22;42641;59.794;17.616;2023-11-19T04:07:01;-2.80;99.90
56771;DHT22;42641;59.794;17.616;2023-11-19T04:09:29;-2.80;99.90
56771;DHT22;42641;59.794;17.616;2023-11-19T04:11:57;-2.70;99.90
56771;DHT22;42641;59.794;17.616;2023-11-19T04:14:24;-2.80;99.90
56771;DHT22;42641;59.794;17.616;2023-11-19T04:16:50;-2.90;99.90
56771;DHT22;42641;59.794;17.616;2023-11-19T04:19:18;-2.80;99.90
56771;DHT22;42641;59.794;17.616;2023-11-19T04:21:45;-2.80;99.90
56771;DHT22;42641;59.794;17.616;2023-11-19T04:24:12;-2.70;99.90
56771;DHT22;42641;59.794;17.616;2023-11-19T04:26:44;-2.70;99.90
56771;DHT22;42641;59.794;17.616;2023-11-19T04:29:12;-2.70;99.90
56771;DHT22;42641;59.794;17.616;2023-11-19T04:31:39;-2.80;99.90
56771;DHT22;42641;59.794;17.616;2023-11-19T04:34:06;-2.80;99.90
56771;DHT22;42641;59.794;17.616;2023-11-19T04:36:35;-2.80;99.90
56771;DHT22;42641;59.794;17.616;2023-11-19T04:39:04;-2.70;99.90
56771;DHT22;42641;59.794;17.616;2023-11-19T04:41:48;-2.70;99.90
56771;DHT22;42641;59.794;17.616;2023-11-19T04:44:16;-2.90;99.90
56771;DHT22;42641;59.794;17.616;2023-11-19T04:46:43;-2.90;99.90
56771;DHT22;42641;59.794;17.616;2023-11-19T04:49:10;-2.80;99.90
56771;DHT22;42641;59.794;17.616;2023-11-19T04:51:44;-2.80;99.90
56771;DHT22;42641;59.794;17.616;2023-11-19T04:54:13;-2.80;99.90
56771;DHT22;42641;59.794;17.616;2023-11-19T04:56:40;-2.80;99.90
56771;DHT22;42641;59.794;17.616;2023-11-19T04:59:07;-2.80;99.90
56771;DHT22;42641;59.794;17.616;2023-11-19T05:01:33;-2.90;99.90
56771;DHT22;42641;59.794;17.616;2023-11-19T05:04:00;-2.80;99.90
56771;DHT22;42641;59.794;17.616;2023-11-19T05:06:30;-2.80;99.90
56771;DHT22;42641;59.794;17.616;2023-11-19T05:09:00;-2.80;99.90
56771;DHT22;42641;59.794;17.616;2023-11-19T05:11:27;-2.90;99.90
56771;DHT22;42641;59.794;17.616;2023-11-19T05:13:54;-2.80;99.90
56771;DHT22;42641;59.794;17.616;2023-11-19T05:16:21;-2.80;99.90
56771;DHT22;42641;59.794;17.616;2023-11-19T05:18:47;-2.70;99.90
56771;DHT22;42641;59.794;17.616;2023-11-19T05:21:14;-2.70;99.90
56771;DHT22;42641;59.794;17.616;2023-11-19T05:23:41;-2.70;99.90
56771;DHT22;42641;59.794;17.616;2023-11-19T05:26:08;-2.70;99.90
56771;DHT22;42641;59.794;17.616;2023-11-19T05:28:35;-2.70;99.90
56771;DHT22;42641;59.794;17.616;2023-11-19T05:31:04;-2.70;99.90
56771;DHT22;42641;59.794;17.616;2023-11-19T05:33:30;-2.70;99.90
56771;DHT22;42641;59.794;17.616;2023-11-19T05:35:57;-2.70;99.90
56771;DHT22;42641;59.794;17.616;2023-11-19T05:38:23;-2.70;99.90
56771;DHT22;42641;59.794;17.616;2023-11-19T05:40:50;-2.60;99.90
56771;DHT22;42641;59.794;17.616;2023-11-19T05:43:16;-2.60;99.90
56771;DHT22;42641;59.794;17.616;2023-11-19T05:45:43;-2.60;99.90
56771;DHT22;42641;59.794;17.616;2023-11-19T05:48:09;-2.70;99.90
56771;DHT22;42641;59.794;17.616;2023-11-19T05:50:36;-2.70;99.90
56771;DHT22;42641;59.794;17.616;2023-11-19T05:53:03;-2.60;99.90
56771;DHT22;42641;59.794;17.616;2023-11-19T05:55:33;-2.60;99.90
56771;DHT22;42641;59.794;17.616;2023-11-19T05:58:00;-2.60;99.90
56771;DHT22;42641;59.794;17.616;2023-11-19T06:00:27;-2.60;99.90
56771;DHT22;42641;59.794;17.616;2023-11-19T06:02:53;-2.50;99.90
56771;DHT22;42641;59.794;17.616;2023-11-19T06:05:19;-2.50;99.90
56771;DHT22;42641;59.794;17.616;2023-11-19T06:07:46;-2.50;99.90
56771;DHT22;42641;59.794;17.616;2023-11-19T06:10:12;-2.60;99.90
56771;DHT22;42641;59.794;17.616;2023-11-19T06:12:42;-2.60;99.90
56771;DHT22;42641;59.794;17.616;2023-11-19T06:15:09;-2.60;99.90
56771;DHT22;42641;59.794;17.616;2023-11-19T06:17:36;-2.60;99.90
56771;DHT22;42641;59.794;17.616;2023-11-19T06:20:04;-2.70;99.90
56771;DHT22;42641;59.794;17.616;2023-11-19T06:22:31;-2.70;99.90
56771;DHT22;42641;59.794;17.616;2023-11-19T06:24:57;-2.70;99.90
56771;DHT22;42641;59.794;17.616;2023-11-19T06:27:24;-2.70;99.90
56771;DHT22;42641;59.794;17.616;2023-11-19T06:29:51;-2.60;99.90
56771;DHT22;42641;59.794;17.616;2023-11-19T06:32:17;-2.60;99.90
56771;DHT22;42641;59.794;17.616;2023-11-19T06:34:46;-2.60;99.90
56771;DHT22;42641;59.794;17.616;2023-11-19T06:37:13;-2.70;99.90
56771;DHT22;42641;59.794;17.616;2023-11-19T06:39:40;-2.80;99.90
56771;DHT22;42641;59.794;17.616;2023-11-19T06:42:06;-2.80;99.90
56771;DHT22;42641;59.794;17.616;2023-11-19T06:44:33;-2.80;99.90
56771;DHT22;42641;59.794;17.616;2023-11-19T06:47:00;-2.70;99.90
56771;DHT22;42641;59.794;17.616;2023-11-19T06:49:26;-2.60;99.90
56771;DHT22;42641;59.794;17.616;2023-11-19T06:51:53;-2.60;99.90
56771;DHT22;42641;59.794;17.616;2023-11-19T06:54:19;-2.50;99.90
56771;DHT22;42641;59.794;17.616;2023-11-19T06:56:46;-2.50;99.90
56771;DHT22;42641;59.794;17.616;2023-11-19T06:59:12;-2.60;99.90
56771;DHT22;42641;59.794;17.616;2023-11-19T07:01:39;-2.60;99.90
56771;DHT22;42641;59.794;17.616;2023-11-19T07:04:06;-2.70;99.90
56771;DHT22;42641;59.794;17.616;2023-11-19T07:09:18;-2.70;99.90
56771;DHT22;42641;59.794;17.616;2023-11-19T07:11:45;-2.60;99.90
56771;DHT22;42641;59.794;17.616;2023-11-19T07:14:13;-2.60;99.90
56771;DHT22;42641;59.794;17.616;2023-11-19T07:16:44;-2.60;99.90
56771;DHT22;42641;59.794;17.616;2023-11-19T07:19:13;-2.70;99.90
56771;DHT22;42641;59.794;17.616;2023-11-19T07:21:43;-2.70;99.90
56771;DHT22;42641;59.794;17.616;2023-11-19T07:24:14;-2.70;99.90
56771;DHT22;42641;59.794;17.616;2023-11-19T07:26:43;-2.60;99.90
56771;DHT22;42641;59.794;17.616;2023-11-19T07:29:10;-2.60;99.90
56771;DHT22;42641;59.794;17.616;2023-11-19T07:31:37;-2.50;99.90
56771;DHT22;42641;59.794;17.616;2023-11-19T07:34:03;-2.50;99.90
56771;DHT22;42641;59.794;17.616;2023-11-19T07:36:31;-2.50;99.90
56771;DHT22;42641;59.794;17.616;2023-11-19T07:38:58;-2.40;99.90
56771;DHT22;42641;59.794;17.616;2023-11-19T07:41:25;-2.40;99.90
56771;DHT22;42641;59.794;17.616;2023-11-19T07:43:52;-2.50;99.90
56771;DHT22;42641;59.794;17.616;2023-11-19T07:46:19;-2.50;99.90
56771;DHT22;42641;59.794;17.616;2023-11-19T07:48:47;-2.50;99.90
56771;DHT22;42641;59.794;17.616;2023-11-19T07:51:14;-2.50;99.90
56771;DHT22;42641;59.794;17.616;2023-11-19T07:53:41;-2.40;99.90
56771;DHT22;42641;59.794;17.616;2023-11-19T07:56:08;-2.40;99.90
56771;DHT22;42641;59.794;17.616;2023-11-19T07:58:35;-2.40;99.90
56771;DHT22;42641;59.794;17.616;2023-11-19T08:01:03;-2.40;99.90
56771;DHT22;42641;59.794;17.616;2023-11-19T08:03:29;-2.40;99.90
56771;DHT22;42641;59.794;17.616;2023-11-19T08:05:56;-2.40;99.90
56771;DHT22;42641;59.794;17.616;2023-11-19T08:08:25;-2.50;99.90
56771;DHT22;42641;59.794;17.616;2023-11-19T08:10:52;-2.60;99.90
56771;DHT22;42641;59.794;17.616;2023-11-19T08:13:20;-2.60;99.90
56771;DHT22;42641;59.794;17.616;2023-11-19T08:15:46;-2.60;99.90
56771;DHT22;42641;59.794;17.616;2023-11-19T08:18:13;-2.60;99.90
56771;DHT22;42641;59.794;17.616;2023-11-19T08:20:39;-2.60;99.90
56771;DHT22;42641;59.794;17.616;2023-11-19T08:23:07;-2.50;99.90
56771;DHT22;42641;59.794;17.616;2023-11-19T08:25:34;-2.50;99.90
56771;DHT22;42641;59.794;17.616;2023-11-19T08:28:01;-2.50;99.90
56771;DHT22;42641;59.794;17.616;2023-11-19T08:30:27;-2.50;99.90
56771;DHT22;42641;59.794;17.616;2023-11-19T08:32:53;-2.50;99.90
56771;DHT22;42641;59.794;17.616;2023-11-19T08:35:20;-2.50;99.90
56771;DHT22;42641;59.794;17.616;2023-11-19T08:37:46;-2.40;99.90
56771;DHT22;42641;59.794;17.616;2023-11-19T08:40:13;-2.30;99.90
56771;DHT22;42641;59.794;17.616;2023-11-19T08:42:40;-2.20;99.90
56771;DHT22;42641;59.794;17.616;2023-11-19T08:45:08;-2.20;99.90
56771;DHT22;42641;59.794;17.616;2023-11-19T08:47:37;-2.00;99.90
56771;DHT22;42641;59.794;17.616;2023-11-19T08:50:05;-2.00;99.90
56771;DHT22;42641;59.794;17.616;2023-11-19T08:52:32;-2.10;99.90
56771;DHT22;42641;59.794;17.616;2023-11-19T08:54:58;-2.00;99.90
56771;DHT22;42641;59.794;17.616;2023-11-19T08:57:25;-1.90;99.90
56771;DHT22;42641;59.794;17.616;2023-11-19T08:59:51;-1.90;99.90
56771;DHT22;42641;59.794;17.616;2023-11-19T09:02:18;-1.90;99.90
56771;DHT22;42641;59.794;17.616;2023-11-19T09:04:44;-2.00;99.90
56771;DHT22;42641;59.794;17.616;2023-11-19T09:07:11;-2.00;99.90
56771;DHT22;42641;59.794;17.616;2023-11-19T09:09:37;-2.10;99.90
56771;DHT22;42641;59.794;17.616;2023-11-19T09:12:04;-2.20;99.90
56771;DHT22;42641;59.794;17.616;2023-11-19T09:14:31;-2.20;99.90
56771;DHT22;42641;59.794;17.616;2023-11-19T09:16:57;-2.20;99.90
56771;DHT22;42641;59.794;17.616;2023-11-19T09:19:24;-2.10;99.90
56771;DHT22;42641;59.794;17.616;2023-11-19T09:21:56;-2.00;99.90
56771;DHT22;42641;59.794;17.616;2023-11-19T09:24:22;-2.00;99.90
56771;DHT22;42641;59.794;17.616;2023-11-19T09:26:49;-2.00;99.90
56771;DHT22;42641;59.794;17.616;2023-11-19T09:29:15;-2.00;99.90
56771;DHT22;42641;59.794;17.616;2023-11-19T09:31:42;-1.90;99.90
56771;DHT22;42641;59.794;17.616;2023-11-19T09:34:09;-1.90;99.90
56771;DHT22;42641;59.794;17.616;2023-11-19T09:36:35;-1.90;99.90
56771;DHT22;42641;59.794;17.616;2023-11-19T09:39:02;-1.90;99.90
56771;DHT22;42641;59.794;17.616;2023-11-19T09:41:31;-1.90;99.90
56771;DHT22;42641;59.794;17.616;2023-11-19T09:43:58;-2.00;99.90
56771;DHT22;42641;59.794;17.616;2023-11-19T09:46:26;-1.90;99.90
56771;DHT22;42641;59.794;17.616;2023-11-19T09:48:53;-1.90;99.90
56771;DHT22;42641;59.794;17.616;2023-11-19T09:51:27;-1.80;99.90
56771;DHT22;42641;59.794;17.616;2023-11-19T09:53:55;-1.80;99.90
56771;DHT22;42641;59.794;17.616;2023-11-19T09:56:23;-1.80;99.90
56771;DHT22;42641;59.794;17.616;2023-11-19T09:58:50;-1.90;99.90
56771;DHT22;42641;59.794;17.616;2023-11-19T10:01:17;-1.90;99.90
56771;DHT22;42641;59.794;17.616;2023-11-19T10:03:47;-1.90;99.90
56771;DHT22;42641;59.794;17.616;2023-11-19T10:06:14;-1.90;99.90
56771;DHT22;42641;59.794;17.616;2023-11-19T10:08:42;-1.80;99.90
56771;DHT22;42641;59.794;17.616;2023-11-19T10:11:09;-1.70;99.90
56771;DHT22;42641;59.794;17.616;2023-11-19T10:13:40;-1.70;99.90
56771;DHT22;42641;59.794;17.616;2023-11-19T10:16:17;-1.60;99.90
56771;DHT22;42641;59.794;17.616;2023-11-19T10:21:39;-1.60;99.90
56771;DHT22;42641;59.794;17.616;2023-11-19T10:24:06;-1.60;99.90
56771;DHT22;42641;59.794;17.616;2023-11-19T10:26:33;-1.50;99.90
56771;DHT22;42641;59.794;17.616;2023-11-19T10:29:01;-1.50;99.90
56771;DHT22;42641;59.794;17.616;2023-11-19T10:31:28;-1.50;99.90
56771;DHT22;42641;59.794;17.616;2023-11-19T10:33:56;-1.50;99.90
56771;DHT22;42641;59.794;17.616;2023-11-19T10:36:23;-1.50;99.90
56771;DHT22;42641;59.794;17.616;2023-11-19T10:39:03;-1.60;99.90
56771;DHT22;42641;59.794;17.616;2023-11-19T10:41:30;-1.50;99.90
56771;DHT22;42641;59.794;17.616;2023-11-19T10:44:02;-1.50;99.90
56771;DHT22;42641;59.794;17.616;2023-11-19T10:46:40;-1.40;99.90
56771;DHT22;42641;59.794;17.616;2023-11-19T10:49:09;-1.50;99.90
56771;DHT22;42641;59.794;17.616;2023-11-19T10:51:42;-1.40;99.90
56771;DHT22;42641;59.794;17.616;2023-11-19T10:54:11;-1.30;99.90
56771;DHT22;42641;59.794;17.616;2023-11-19T10:56:40;-1.40;99.90
56771;DHT22;42641;59.794;17.616;2023-11-19T10:59:09;-1.40;99.90
56771;DHT22;42641;59.794;17.616;2023-11-19T11:01:45;-1.30;99.90
56771;DHT22;42641;59.794;17.616;2023-11-19T11:04:15;-1.30;99.90
56771;DHT22;42641;59.794;17.616;2023-11-19T11:06:48;-1.30;99.90
56771;DHT22;42641;59.794;17.616;2023-11-19T11:09:20;-1.30;99.90
56771;DHT22;42641;59.794;17.616;2023-11-19T11:11:47;-1.30;99.90
56771;DHT22;42641;59.794;17.616;2023-11-19T11:14:16;-1.30;99.90
56771;DHT22;42641;59.794;17.616;2023-11-19T11:16:46;-1.30;99.90
56771;DHT22;42641;59.794;17.616;2023-11-19T11:19:12;-1.20;99.90
56771;DHT22;42641;59.794;17.616;2023-11-19T11:21:43;-1.30;99.90
56771;DHT22;42641;59.794;17.616;2023-11-19T11:27:40;-1.30;99.90
56771;DHT22;42641;59.794;17.616;2023-11-19T11:33:14;-1.50;99.90
56771;DHT22;42641;59.794;17.616;2023-11-19T11:35:55;-1.40;99.90
56771;DHT22;42641;59.794;17.616;2023-11-19T11:38:28;-1.50;99.90
56771;DHT22;42641;59.794;17.616;2023-11-19T11:41:22;-1.50;99.90
56771;DHT22;42641;59.794;17.616;2023-11-19T11:43:55;-1.50;99.90
56771;DHT22;42641;59.794;17.616;2023-11-19T11:49:06;-1.50;99.90
56771;DHT22;42641;59.794;17.616;2023-11-19T11:57:06;-1.80;99.90
56771;DHT22;42641;59.794;17.616;2023-11-19T11:59:53;-1.90;99.90
56771;DHT22;42641;59.794;17.616;2023-11-19T12:02:23;-1.80;99.90
56771;DHT22;42641;59.794;17.616;2023-11-19T12:04:51;-1.80;99.90
56771;DHT22;42641;59.794;17.616;2023-11-19T12:07:22;-1.80;99.90
56771;DHT22;42641;59.794;17.616;2023-11-19T12:10:09;-1.80;99.90
56771;DHT22;42641;59.794;17.616;2023-11-19T12:12:38;-1.80;99.90
56771;DHT22;42641;59.794;17.616;2023-11-19T12:15:09;-1.90;99.90
56771;DHT22;42641;59.794;17.616;2023-11-19T12:17:42;-2.00;99.90
56771;DHT22;42641;59.794;17.616;2023-11-19T12:20:12;-2.00;99.90
56771;DHT22;42641;59.794;17.616;2023-11-19T12:22:44;-2.20;99.90
56771;DHT22;42641;59.794;17.616;2023-11-19T12:25:11;-2.30;99.90
56771;DHT22;42641;59.794;17.616;2023-11-19T12:27:45;-2.30;99.90
56771;DHT22;42641;59.794;17.616;2023-11-19T12:30:16;-2.30;99.90
56771;DHT22;42641;59.794;17.616;2023-11-19T12:32:45;-2.20;99.90
56771;DHT22;42641;59.794;17.616;2023-11-19T12:35:12;-2.10;99.90
56771;DHT22;42641;59.794;17.616;2023-11-19T12:40:16;-2.00;99.90
56771;DHT22;42641;59.794;17.616;2023-11-19T12:42:47;-2.00;99.90
56771;DHT22;42641;59.794;17.616;2023-11-19T12:45:14;-2.00;99.90
56771;DHT22;42641;59.794;17.616;2023-11-19T12:47:43;-1.90;99.90
56771;DHT22;42641;59.794;17.616;2023-11-19T12:54:15;-2.00;99.90
56771;DHT22;42641;59.794;17.616;2023-11-19T14:46:55;-2.30;99.90
56771;DHT22;42641;59.794;17.616;2023-11-19T14:49:21;-2.30;99.90
56771;DHT22;42641;59.794;17.616;2023-11-19T14:51:50;-2.40;99.90
56771;DHT22;42641;59.794;17.616;2023-11-19T14:54:17;-2.40;99.90
56771;DHT22;42641;59.794;17.616;2023-11-19T14:56:43;-2.40;99.90
56771;DHT22;42641;59.794;17.616;2023-11-19T14:59:10;-2.30;99.90
56771;DHT22;42641;59.794;17.616;2023-11-19T15:01:36;-2.40;99.90
56771;DHT22;42641;59.794;17.616;2023-11-19T15:04:03;-2.30;99.90
56771;DHT22;42641;59.794;17.616;2023-11-19T15:06:29;-2.40;99.90
56771;DHT22;42641;59.794;17.616;2023-11-19T15:08:57;-2.40;99.90
56771;DHT22;42641;59.794;17.616;2023-11-19T15:11:23;-2.40;99.90
56771;DHT22;42641;59.794;17.616;2023-11-19T15:13:50;-2.30;99.90
56771;DHT22;42641;59.794;17.616;2023-11-19T15:16:16;-2.40;99.90
56771;DHT22;42641;59.794;17.616;2023-11-19T15:18:49;-2.30;99.90
56771;DHT22;42641;59.794;17.616;2023-11-19T15:21:15;-2.40;99.90
56771;DHT22;42641;59.794;17.616;2023-11-19T15:23:42;-2.40;99.90
56771;DHT22;42641;59.794;17.616;2023-11-19T15:26:09;-2.40;99.90
56771;DHT22;42641;59.794;17.616;2023-11-19T15:28:37;-2.50;99.90
56771;DHT22;42641;59.794;17.616;2023-11-19T15:31:03;-2.40;99.90
56771;DHT22;42641;59.794;17.616;2023-11-19T15:33:30;-2.40;99.90
56771;DHT22;42641;59.794;17.616;2023-11-19T15:35:56;-2.40;99.90
56771;DHT22;42641;59.794;17.616;2023-11-19T15:38:23;-2.40;99.90
56771;DHT22;42641;59.794;17.616;2023-11-19T15:40:49;-2.50;99.90
56771;DHT22;42641;59.794;17.616;2023-11-19T15:43:15;-2.40;99.90
56771;DHT22;42641;59.794;17.616;2023-11-19T15:45:42;-2.50;99.90
56771;DHT22;42641;59.794;17.616;2023-11-19T15:48:08;-2.40;99.90
56771;DHT22;42641;59.794;17.616;2023-11-19T15:50:35;-2.30;99.90
56771;DHT22;42641;59.794;17.616;2023-11-19T15:53:01;-2.30;99.90
56771;DHT22;42641;59.794;17.616;2023-11-19T15:55:28;-2.40;99.90
56771;DHT22;42641;59.794;17.616;2023-11-19T15:57:54;-2.40;99.90
56771;DHT22;42641;59.794;17.616;2023-11-19T16:00:21;-2.50;99.90
56771;DHT22;42641;59.794;17.616;2023-11-19T16:02:48;-2.40;99.90
56771;DHT22;42641;59.794;17.616;2023-11-19T16:05:17;-2.30;99.90
56771;DHT22;42641;59.794;17.616;2023-11-19T16:07:44;-2.20;99.90
56771;DHT22;42641;59.794;17.616;2023-11-19T16:10:10;-2.20;99.90
56771;DHT22;42641;59.794;17.616;2023-11-19T16:12:39;-2.20;99.90
56771;DHT22;42641;59.794;17.616;2023-11-19T16:15:09;-2.20;99.90
56771;DHT22;42641;59.794;17.616;2023-11-19T16:17:35;-2.30;99.90
56771;DHT22;42641;59.794;17.616;2023-11-19T16:20:05;-2.30;99.90
56771;DHT22;42641;59.794;17.616;2023-11-19T16:22:33;-2.20;99.90
56771;DHT22;42641;59.794;17.616;2023-11-19T16:24:59;-2.20;99.90
56771;DHT22;42641;59.794;17.616;2023-11-19T16:27:26;-2.10;99.90
56771;DHT22;42641;59.794;17.616;2023-11-19T16:29:53;-2.10;99.90
56771;DHT22;42641;59.794;17.616;2023-11-19T16:32:19;-2.10;99.90
56771;DHT22;42641;59.794;17.616;2023-11-19T16:34:45;-2.10;99.90
56771;DHT22;42641;59.794;17.616;2023-11-19T16:37:17;-2.20;99.90
56771;DHT22;42641;59.794;17.616;2023-11-19T16:39:44;-2.20;99.90
56771;DHT22;42641;59.794;17.616;2023-11-19T16:42:10;-2.30;99.90
56771;DHT22;42641;59.794;17.616;2023-11-19T16:44:36;-2.30;99.90
56771;DHT22;42641;59.794;17.616;2023-11-19T16:47:03;-2.30;99.90
56771;DHT22;42641;59.794;17.616;2023-11-19T16:49:33;-2.30;99.90
56771;DHT22;42641;59.794;17.616;2023-11-19T16:52:00;-2.20;99.90
56771;DHT22;42641;59.794;17.616;2023-11-19T16:54:26;-2.10;99.90
56771;DHT22;42641;59.794;17.616;2023-11-19T16:56:53;-2.10;99.90
56771;DHT22;42641;59.794;17.616;2023-11-19T16:59:19;-2.10;99.90
56771;DHT22;42641;59.794;17.616;2023-11-19T17:01:46;-2.10;99.90
56771;DHT22;42641;59.794;17.616;2023-11-19T17:04:13;-2.10;99.90
56771;DHT22;42641;59.794;17.616;2023-11-19T17:06:41;-2.10;99.90
56771;DHT22;42641;59.794;17.616;2023-11-19T17:09:08;-2.00;99.90
56771;DHT22;42641;59.794;17.616;2023-11-19T17:11:40;-2.00;99.90
56771;DHT22;42641;59.794;17.616;2023-11-19T17:14:08;-1.90;99.90
56771;DHT22;42641;59.794;17.616;2023-11-19T17:16:35;-1.90;99.90
56771;DHT22;42641;59.794;17.616;2023-11-19T17:19:03;-1.90;99.90
56771;DHT22;42641;59.794;17.616;2023-11-19T17:21:29;-1.80;99.90
56771;DHT22;42641;59.794;17.616;2023-11-19T17:23:56;-1.70;99.90
56771;DHT22;42641;59.794;17.616;2023-11-19T17:26:23;-1.70;99.90
56771;DHT22;42641;59.794;17.616;2023-11-19T17:28:49;-1.80;99.90
56771;DHT22;42641;59.794;17.616;2023-11-19T17:31:16;-1.70;99.90
56771;DHT22;42641;59.794;17.616;2023-11-19T17:33:43;-1.60;99.90
56771;DHT22;42641;59.794;17.616;2023-11-19T17:36:09;-1.60;99.90
56771;DHT22;42641;59.794;17.616;2023-11-19T17:38:36;-1.60;99.90
56771;DHT22;42641;59.794;17.616;2023-11-19T17:41:02;-1.60;99.90
56771;DHT22;42641;59.794;17.616;2023-11-19T17:43:29;-1.60;99.90
56771;DHT22;42641;59.794;17.616;2023-11-19T17:45:56;-1.60;99.90
56771;DHT22;42641;59.794;17.616;2023-11-19T17:48:26;-1.60;99.90
56771;DHT22;42641;59.794;17.616;2023-11-19T17:50:52;-1.60;99.90
56771;DHT22;42641;59.794;17.616;2023-11-19T17:53:23;-1.60;99.90
56771;DHT22;42641;59.794;17.616;2023-11-19T17:55:49;-1.60;99.90
56771;DHT22;42641;59.794;17.616;2023-11-19T17:58:16;-1.60;99.90
56771;DHT22;42641;59.794;17.616;2023-11-19T18:00:42;-1.50;99.90
56771;DHT22;42641;59.794;17.616;2023-11-19T18:03:08;-1.40;99.90
56771;DHT22;42641;59.794;17.616;2023-11-19T18:05:35;-1.40;99.90
56771;DHT22;42641;59.794;17.616;2023-11-19T18:08:01;-1.40;99.90
56771;DHT22;42641;59.794;17.616;2023-11-19T18:10:28;-1.40;99.90
56771;DHT22;42641;59.794;17.616;2023-11-19T18:12:54;-1.40;99.90
56771;DHT22;42641;59.794;17.616;2023-11-19T18:15:21;-1.40;99.90
56771;DHT22;42641;59.794;17.616;2023-11-19T18:17:47;-1.40;99.90
56771;DHT22;42641;59.794;17.616;2023-11-19T18:20:14;-1.40;99.90
56771;DHT22;42641;59.794;17.616;2023-11-19T18:22:41;-1.30;99.90
56771;DHT22;42641;59.794;17.616;2023-11-19T18:25:08;-1.40;99.90
56771;DHT22;42641;59.794;17.616;2023-11-19T18:27:40;-1.40;99.90